Results by/Résultats par Info:[email protected] Phone: (613)723-0994

                                     K-TOWN TRIATHLON
                    
                                   Sunday August 3, 2008

                           Confederation Park, Kingston, Ontario
                    
                                Overall Results - Duathlon

  -----FINAL----- ----------------------- ------------ -------------------- ----            4km                         30 km                   7.2 km         
                                                       Category                     ------RUN + T1--------    ----------BIKE--------    -------RUN + T2-------- ------
    Pos     Time  Name                    City         Plc/Total Category     #      Cat  Ovr  Time     km     Cat Ovr Time  km/hr      Cat  Ovr  Time     km   BRIDGE
  ------  ------- ----------------------- ------------ -------------------- ----    ----------------------    ----------------------    ----------------------- ------
    1     1:27:36 Kevin SMITH             Oakvilla       1/4   Elite Men     757    1      1   13:25  3:22    2      2   49:42  36.2     1      1   24:29  3:24         
    2     1:33:24 Peter DOYLE             Denver(Auror   2/4   Elite Men     742    3      3   15:16  3:49    1      1   49:02  36.7     3      4   29:07  4:03         
    3     1:35:20 Jim BORRENS             Ottawa         3/4   Elite Men     768    2      2   14:44  3:41    3      7   52:18  34.4     2      3   29:04  4:03    0:44 
    4     1:36:59 Jimi RITCHIE            Kingston       1/3   M25 - 29      778    2      7   17:01  4:16    1      4   51:31  34.9     1      2   28:29  3:58         
    5     1:39:53 Rob DROUGHAN            Toronto        1/9   M45 - 49      740    2     11   17:25  4:22    1      3   50:25  35.7     2     11   32:24  4:30    0:20 
    6     1:40:38 Michael MAGILL          Kingston       2/9   M45 - 49      715    1      8   17:04  4:16    3      9   53:17  33.8     1      7   30:18  4:13         
    7     1:42:52 Paul DIRINALDO          Kingston       1/5   M30 - 34      732    1     10   17:06  4:17    1      5   51:33  34.9     1     17   34:14  4:46         
    8     1:43:21 Tim DORIS               Cobourg        1/3   M40 - 44      745    1      9   17:05  4:17    1     12   56:34  31.8     1      6   29:43  4:08         
    9     1:44:52 Dave WALL               Kingston       1/10  M50 - 54      727    4     20   18:58  4:45    1      8   52:35  34.2     4     15   33:20  4:38         
   10     1:45:01 Andrew James MUNDIE     Toronto        2/3   M25 - 29      746    1      5   16:15  4:04    2     16   58:04  31.0     2      8   30:43  4:16         
   11     1:45:19 Allan ANDERSON          Ottawa         2/10  M50 - 54      743    1     13   17:51  4:28    2     11   56:10  32.0     1      9   31:19  4:21         
   12     1:46:19 Rick MCEACHRAN          Ottawa         1/6   M35 - 39      773    1      4   16:06  4:02    2     18   58:15  30.9     2     10   31:59  4:27         
   13     1:49:44 Suzan RIBENBIOM         Simpsonville   1/9   W45 - 49      713    1     16   18:46  4:42    1     17   58:12  30.9     1     13   32:46  4:34         
   14     1:50:19 Kathy BRADLEY           Ottawa         1/3   W35 - 39      726    1     23   19:38  4:55    1     10   55:12  32.6     1     20   35:29  4:56         
   15     1:50:46 Bryan LAMBERT           Kingston       2/6   M35 - 39      733    2      6   16:25  4:07    4     34 1:04:42  27.8     1      5   29:40  4:08         
   16     1:51:59 Jesse KERBER            Uxbridge       3/10  M50 - 54      700    2     15   18:24  4:36    4     23 1:00:52  29.6     2     12   32:43  4:33         
   17     1:52:10 Brian CAMPBELL          St. Catharin   1/1   M60 - 64      709    1     28   20:16  5:04    1     14   57:26  31.3     1     18   34:29  4:48         
   18     1:53:32 Edwin AGUILAR           Kingston       2/5   M30 - 34      738    3     19   18:57  4:45    2     15   57:45  31.2     4     25   36:51  5:07         
   19     1:53:34 Stephen CARTER          Kingston       3/5   M30 - 34      761    2     17   18:51  4:43    3     19   58:16  30.9     2     22   36:28  5:04         
   20     1:53:38 Joan SCIBETTA           Breweton       1/3   W40 - 44      760    1     21   19:09  4:48    1     24 1:01:07  29.5     1     16   33:23  4:39         
   21     1:54:12 Ricky MCROBERT          Whitby         4/10  M50 - 54      701    6     29   20:20  5:05    3     22 1:00:51  29.6     3     14   33:02  4:36         
   22     1:56:03 Marc DIGIORGIO          Toronto        3/6   M35 - 39      748    5     36   21:38  5:25    1     13   57:23  31.4     4     27   37:03  5:09         
   23     1:56:06 Paul GAVEL              Napanee        1/3   M55 - 59      702                              3                          1     34   38:18  5:20         
   24     1:58:29 Peter KINGSTON          Kingston       5/10  M50 - 54      705    5     25   19:57  5:00    5     26 1:02:00  29.0     6     23   36:33  5:05         
   25     1:58:58 Alexandre BOUDREAULT    Gatineau       4/5   M30 - 34      764    4     26   20:11  5:03    4     27 1:02:12  28.9     3     24   36:36  5:05         
   26     1:59:55 Rick PINDUR             Glen Ellyn     6/10  M50 - 54      717    3     18   18:56  4:44    8     36 1:06:07  27.2     5     19   34:53  4:51         
   27     2:00:13 Bob SEITZ               Kingston       4/6   M35 - 39      734    3     22   19:10  4:48    3     32 1:04:03  28.1     3     26   37:00  5:09         
   28     2:00:27 Lisa ARMSTRONG          Kingston       1/2   W20 - 24      749    1     31   20:34  5:09    1     33 1:04:20  28.0     1     21   35:34  4:57         
   29     2:00:52 Giovanni SALAS          Oshawa         3/9   M45 - 49      708    4     35   21:10  5:18    4     20   59:21  30.3     5     44   40:23  5:37         
   30     2:01:22 Bob KLASSEN             Kingston       7/10  M50 - 54      737    7     30   20:32  5:08    6     29 1:02:26  28.8     8     36   38:25  5:21         
   31     2:02:36 Lyle ROBINSON           Kingston       4/9   M45 - 49      765    5     39   22:10  5:33    5     28 1:02:21  28.9     3     33   38:06  5:18         
   32     2:03:00 Ted BRANSCOMBE          Kingston       3/3   M25 - 29      752    3     45   22:53  5:44    3     21 1:00:29  29.8     3     42   39:39  5:31         
   33     2:03:54 Tim KINGSTON            Inverary       2/3   M55 - 59      707    1     24   19:49  4:58    1     35 1:04:50  27.8     2     40   39:16  5:28         
   34     2:04:51 Bruce CAUGHILL          Niagara on t   2/3   M40 - 44      704    2     27   20:14  5:04    2     25 1:01:49  29.1     2     52   42:48  5:57         
   35     2:05:07 Brian LEWIS             Kingston       5/9   M45 - 49      754    6     42   22:24  5:36    6     31 1:04:03  28.1     4     39   38:42  5:23         
   36     2:06:07 Marney MALABAR          Toronto        2/9   W45 - 49      759    2     38   21:59  5:30    2     38 1:06:29  27.1     3     31   37:40  5:14         
   37     2:06:42 Donna RICHARDSON        Kingston       3/9   W45 - 49      731    3     40   22:11  5:33    3     39 1:06:32  27.1     4     32   38:00  5:17         
   38     2:07:39 Amy HEWITT              Kingston       1/3   W25 - 29      753    1     44   22:51  5:43    1     37 1:06:17  27.2     1     37   38:32  5:21         
   39     2:08:18 Eddy LLOYD              Kingston       8/10  M50 - 54      721    9     41   22:14  5:34    7     30 1:03:06  28.5     10    53   42:59  5:59         
   40     2:08:20 James DE MELO           Mississauga    5/6   M35 - 39      770    4     32   20:46  5:12    5     44 1:08:59  26.1     5     38   38:37  5:22         
   41     2:09:06 Meghan LEUPRECHT        Kingston       1/1   W30 - 34      766    1     34   21:02  5:16    1     42 1:08:27  26.3     1     41   39:38  5:31         
   42     2:10:27 Louise HUNTER           Kingston       4/9   W45 - 49      719    6     55   24:08  6:02    4     45 1:09:01  26.1     2     29   37:19  5:11         
   43     2:10:37 P.j. MARSHALL           Kingston       1/1   M65 - 69      722    1     51   23:14  5:49    1     46 1:09:05  26.1     1     35   38:19  5:20         
   44     2:10:46 Steve BYCOK             Kingston       4/4   Elite Men     758    4     33   20:55  5:14    4     50 1:12:13  24.9     4     30   37:39  5:14         
   45     2:12:48 Shannon THOMPSON        Kingston       2/3   W40 - 44      772    2     47   23:00  5:45    2     47 1:09:29  25.9     2     43   40:21  5:37         
   46     2:13:07 Francis GILLESPIE       Perthroad vi   9/10  M50 - 54      767    10    57   24:26  6:07    9     49 1:11:37  25.1     7     28   37:04  5:09         
   47     2:13:12 Tim GORDANIER           Amherstview    6/9   M45 - 49      763    7     43   22:49  5:43    8     41 1:07:41  26.6     7     50   42:43  5:56         
   48     2:13:32 Daryl WATTERS           Kingston       7/9   M45 - 49      720    8     56   24:11  6:03    7     40 1:07:37  26.6     6     48   41:45  5:48         
   49     2:13:52 Sheila KINGSTON         Kingston       1/1   W55 - 59      706    1     48   23:02  5:46    1     48 1:09:48  25.8     1     45   41:03  5:43         
   50     2:13:59 Jessica FLYNN           Kingston       2/3   W25 - 29      750    2     53   23:40  5:55    2     43 1:08:45  26.2     2     47   41:36  5:47         
   51     2:18:00 Danny WATSON            Amherstview   10/10  M50 - 54      724    8     37   21:48  5:27    10    59 1:13:28  24.5     9     51   42:44  5:57         
   52     2:18:21 Sharon KLASSEN          Kingston       5/9   W45 - 49      736    5     50   23:06  5:47    8     61 1:14:05  24.3     5     46   41:11  5:44         
   53     2:18:30 Matt HALL               Kingston       1/1   Junior Men    703    1     49   23:03  5:46    1     55 1:12:52  24.7     1     49   42:36  5:55         
   54     2:19:32 Deborah PINDUR          Glen Ellyn     6/9   W45 - 49      716    4     46   22:55  5:44    5     53 1:12:39  24.8     6     55   43:59  6:07         
   55     2:20:41 Kelsie WATSON           Amherstview    2/2   W20 - 24      744    2     54   23:42  5:56    2     57 1:13:13  24.6     2     54   43:47  6:05         
   56     2:23:05 Peter SIEMONSEN         Kingston       8/9   M45 - 49      710    9     62   24:54  6:14    9     51 1:12:22  24.9     8     59   45:51  6:23         
   57     2:26:33 Cathy SIEMONSEN         Kingston       7/9   W45 - 49      712    9     65   25:16  6:19    7     56 1:12:53  24.7     8     61   48:26  6:44         
   58     2:27:05 Matt BOLES              Kingston       1/1   M20 - 24      739    1     52   23:39  5:55    1     60 1:13:40  24.4     1     63   49:47  6:55         
   59     2:28:09 Frank SPINDLER          Kingston       3/3   M40 - 44      774    3     58   24:32  6:08    3     63 1:19:16  22.7     3     57   44:22  6:10         
   60     2:28:09 Catherin ERNST-SPINDLER Kingston       3/3   W40 - 44      775    3     59   24:35  6:09    3     62 1:19:14  22.7     3     56   44:22  6:10         
   61     2:29:54 Ruth BERNARDI           Kingston       8/9   W45 - 49      776    8     63   25:00  6:15    9     65 1:20:16  22.4     7     58   44:39  6:12         
   62     2:31:42 Laura CRUSE             Kingston       9/9   W45 - 49      718    7     61   24:49  6:13    6     54 1:12:44  24.7     9     65   54:09  7:32         
   63     2:32:13 Patricia WATSON         Amherstview    1/2   W50 - 54      723    1     60   24:40  6:10    2     66 1:20:41  22.3     1     60   46:53  6:31         
   64     2:35:52 Roberta SALVADOR        Mississauga    3/3   W25 - 29      751    3     66   27:11  6:48    3     58 1:13:14  24.6     3     67   55:28  7:43         
   65     2:39:11 Michael VALLERAND       Kingston       5/5   M30 - 34      777    5     64   25:14  6:19    5     64 1:19:19  22.7     5     66   54:38  7:36         













                                     K-TOWN TRIATHLON
                    
                                   Sunday August 3, 2008

                           Confederation Park, Kingston, Ontario
                    
                                Overall Results - Duathlon

  -----FINAL----- ----------------------- ------------ -------------------- ----            4km                         30 km                   7.2 km         
                                                       Category                     ------RUN + T1--------    ----------BIKE--------    -------RUN + T2-------- ------
    Pos     Time  Name                    City         Plc/Total Category     #      Cat  Ovr  Time     km     Cat Ovr Time  km/hr      Cat  Ovr  Time     km   BRIDGE
  ------  ------- ----------------------- ------------ -------------------- ----    ----------------------    ----------------------    ----------------------- ------
   66     2:40:41 Fran CRAWFORD           Kingston       2/2   W50 - 54      725    2     67   27:41  6:56    1     52 1:12:37  24.8     2     68 1:00:24  8:24         
   67     2:42:14 Angela NUGENT           Kingston       2/3   W35 - 39      771    3     69   28:13  7:04    3     68 1:24:50  21.2     2     62   49:12  6:50         
   68     2:42:48 Jennifer BARNETT        Mississauga    3/3   W35 - 39      741    2     68   27:44  6:56    2     67 1:21:57  22.0     3     64   53:08  7:23         
   69     3:05:54 Mike WALKER             Kingston       3/3   M55 - 59      747    2     70   31:38  7:55    2     69 1:28:11  20.4     3     69 1:06:06  9:11         
   70     3:26:22 Fred T. PEREL           Kingston       6/6   M35 - 39      756    6     71   32:39  8:10    6     70 1:45:25  17.1     6     70 1:08:18  9:30         
   71 DNF         Randal DYZAK            Kingston       9/9   M45 - 49      769    3     12   17:30  4:23    2      6   51:54  34.7                                    
   72 DNF         Emily KLASSEN           Kingston       1/1   Junior Women  735    1     14   18:10  4:33